createdAt,value
2023-05-16T02:08:29.361Z,90.40
2023-05-16T02:10:06.630Z,84.30
2023-05-16T02:10:41.367Z,88.40
2023-05-16T02:11:13.131Z,88.80
2023-05-16T02:11:46.451Z,89.10
2023-05-16T02:12:18.296Z,88.60
2023-05-16T02:12:51.466Z,88.90
2023-05-16T02:13:23.249Z,88.40
2023-05-16T02:13:54.985Z,89.20
2023-05-16T02:14:26.981Z,88.40
2023-05-16T02:14:58.774Z,88.60
2023-05-16T02:15:30.623Z,88.80
2023-05-16T02:16:02.339Z,88.60
2023-05-16T02:16:34.289Z,88.20
2023-05-16T02:17:06.453Z,88.10
2023-05-16T02:17:38.362Z,88.20
2023-05-16T02:18:11.079Z,88.10
2023-05-16T02:18:42.972Z,87.90
2023-05-16T02:19:16.658Z,87.70
2023-05-16T02:19:48.460Z,87.70
2023-05-16T02:20:20.333Z,87.80
2023-05-16T02:20:52.343Z,87.90
2023-05-16T02:21:24.126Z,88.00
2023-05-16T02:21:56.721Z,88.20
2023-05-16T02:22:28.470Z,87.10
2023-05-16T02:23:00.275Z,87.10
2023-05-16T02:23:32.191Z,86.80
2023-05-16T02:24:05.285Z,87.10
2023-05-16T02:24:37.069Z,86.70
2023-05-16T02:25:09.425Z,86.80
2023-05-16T02:25:41.230Z,87.30
2023-05-16T02:26:15.185Z,86.50
2023-05-16T02:26:47.176Z,86.50
2023-05-16T02:27:19.009Z,87.00
2023-05-16T02:27:50.796Z,86.40
2023-05-16T02:28:22.614Z,85.20
2023-05-16T02:28:54.471Z,84.80
2023-05-16T02:29:26.209Z,84.30
2023-05-16T02:29:58.077Z,83.90
2023-05-16T02:30:29.989Z,83.70
2023-05-16T02:31:02.376Z,83.40
2023-05-16T02:31:34.967Z,83.30
2023-05-16T02:32:07.129Z,83.60
2023-05-16T02:32:39.926Z,82.60
2023-05-16T02:33:13.157Z,83.30
2023-05-16T02:34:17.820Z,80.40
2023-05-16T02:34:49.691Z,84.20
2023-05-16T02:35:21.609Z,82.50
2023-05-16T02:35:54.175Z,82.20
2023-05-16T02:36:26.209Z,82.60
2023-05-16T02:36:57.923Z,82.20
2023-05-16T02:37:29.694Z,82.30
2023-05-16T02:38:34.112Z,80.50
2023-05-16T02:39:05.893Z,82.10
2023-05-16T02:39:37.916Z,82.10
2023-05-16T02:40:10.262Z,82.80
2023-05-16T02:40:42.043Z,81.40
2023-05-16T02:41:13.818Z,81.80
2023-05-16T02:41:47.157Z,81.70
2023-05-16T02:42:20.396Z,81.90
2023-05-16T02:42:52.137Z,82.00
2023-05-16T02:43:23.997Z,82.90
2023-05-16T02:43:55.872Z,82.10
2023-05-16T02:44:27.638Z,81.90
2023-05-16T02:44:59.617Z,82.80
2023-05-16T02:45:31.589Z,81.70
2023-05-16T02:46:20.604Z,81.90
2023-05-16T02:46:52.535Z,81.80
2023-05-16T02:47:24.621Z,81.70
2023-05-16T02:47:56.479Z,81.90
2023-05-16T02:48:28.336Z,82.00
2023-05-16T02:49:01.452Z,82.40
2023-05-16T02:49:33.313Z,82.00
2023-05-16T02:50:06.301Z,82.80
2023-05-16T02:50:40.271Z,81.60
2023-05-16T02:51:12.048Z,82.20
2023-05-16T02:51:43.783Z,81.80
2023-05-16T02:52:15.593Z,82.00
2023-05-16T02:52:47.673Z,81.80
2023-05-16T02:53:19.399Z,81.70
2023-05-16T02:53:52.358Z,81.90
2023-05-16T02:54:24.120Z,81.80
2023-05-16T02:55:10.066Z,81.30
2023-05-16T02:55:47.965Z,81.40
2023-05-16T02:56:21.577Z,81.30
2023-05-16T02:56:53.303Z,82.00
2023-05-16T02:57:25.111Z,81.60
2023-05-16T02:57:57.038Z,81.80
2023-05-16T02:58:29.198Z,81.60
2023-05-16T02:59:00.927Z,81.80
2023-05-16T02:59:32.626Z,81.80
2023-05-16T03:00:37.760Z,80.40
2023-05-16T03:01:10.370Z,81.30
2023-05-16T03:01:42.257Z,81.60
2023-05-16T03:02:14.241Z,81.60
2023-05-16T03:02:46.938Z,81.50
2023-05-16T03:03:18.903Z,81.50
2023-05-16T03:03:51.104Z,81.80
2023-05-16T03:04:23.666Z,82.10
2023-05-16T03:04:55.375Z,81.80
2023-05-16T03:05:27.424Z,81.40
2023-05-16T03:05:59.197Z,81.60
2023-05-16T03:06:31.534Z,82.10
2023-05-16T03:07:04.913Z,81.80
2023-05-16T03:07:37.624Z,81.90
2023-05-16T03:08:11.041Z,81.40
2023-05-16T03:08:42.769Z,83.10
2023-05-16T03:09:14.557Z,81.90
2023-05-16T03:09:48.305Z,81.50
2023-05-16T03:10:20.174Z,81.30
2023-05-16T03:10:51.950Z,81.80
2023-05-16T03:11:24.880Z,82.00
2023-05-16T03:11:56.696Z,82.90
2023-05-16T03:12:28.434Z,82.00
2023-05-16T03:13:00.499Z,81.60
2023-05-16T03:13:33.053Z,81.90
2023-05-16T03:14:05.598Z,81.80
2023-05-16T03:14:37.327Z,81.70
2023-05-16T03:15:09.727Z,82.30
2023-05-16T03:15:41.786Z,81.80
2023-05-16T03:16:13.609Z,82.90
2023-05-16T03:16:45.992Z,82.00
2023-05-16T03:17:17.757Z,82.00
2023-05-16T03:17:49.579Z,82.00
2023-05-16T03:18:21.806Z,81.90
2023-05-16T03:18:53.635Z,81.40
2023-05-16T03:19:25.522Z,82.20
2023-05-16T03:19:58.771Z,82.90
2023-05-16T03:20:30.619Z,82.40
2023-05-16T03:21:03.092Z,82.30
2023-05-16T03:21:35.047Z,81.80
2023-05-16T03:22:06.776Z,82.20
2023-05-16T03:22:38.725Z,81.90
2023-05-16T03:23:11.035Z,82.20
2023-05-16T03:23:43.493Z,83.10
2023-05-16T03:24:15.454Z,83.20
2023-05-16T03:24:48.863Z,81.90
2023-05-16T03:25:21.122Z,82.30
2023-05-16T03:25:52.862Z,81.80
2023-05-16T03:26:26.082Z,82.20
2023-05-16T03:26:59.898Z,82.80
2023-05-16T03:27:31.681Z,82.20
2023-05-16T03:28:10.755Z,82.30
2023-05-16T03:28:42.520Z,82.70
2023-05-16T03:29:14.346Z,82.40
2023-05-16T03:29:46.139Z,82.90
2023-05-16T03:30:19.848Z,84.40
2023-05-16T03:30:51.582Z,82.90
2023-05-16T03:31:23.478Z,82.80
2023-05-16T03:31:55.326Z,82.60
2023-05-16T03:32:27.183Z,82.60
2023-05-16T03:32:58.997Z,82.10
2023-05-16T03:33:30.951Z,82.20
2023-05-16T03:34:02.711Z,82.20
2023-05-16T03:34:34.418Z,82.60
2023-05-16T03:35:06.390Z,82.40
2023-05-16T03:35:38.654Z,82.90
2023-05-16T03:36:11.138Z,83.20
2023-05-16T03:36:43.265Z,80.30
2023-05-16T03:37:16.002Z,82.80
2023-05-16T03:37:47.845Z,84.10
2023-05-16T03:38:19.663Z,83.30
2023-05-16T03:38:52.673Z,82.70
2023-05-16T03:39:25.506Z,83.10
2023-05-16T03:39:57.272Z,83.90
2023-05-16T03:40:29.082Z,82.90
2023-05-16T03:41:01.120Z,83.30
2023-05-16T03:41:33.216Z,82.70
2023-05-16T03:42:05.823Z,84.00
2023-05-16T03:42:37.639Z,82.60
2023-05-16T03:43:09.381Z,82.60
2023-05-16T03:43:41.256Z,82.90
2023-05-16T03:44:13.043Z,82.40
2023-05-16T03:44:44.961Z,83.90
2023-05-16T03:45:16.866Z,80.60
2023-05-16T03:45:48.694Z,82.50
2023-05-16T03:46:20.639Z,83.00
2023-05-16T03:46:54.131Z,82.40
2023-05-16T03:47:26.005Z,82.10
2023-05-16T03:47:58.004Z,83.20
2023-05-16T03:48:29.898Z,82.80
2023-05-16T03:49:01.956Z,82.80
2023-05-16T03:49:33.726Z,83.50
2023-05-16T03:50:06.487Z,83.40
2023-05-16T03:50:40.770Z,82.20
2023-05-16T03:51:12.891Z,82.20
2023-05-16T03:51:44.682Z,82.10
2023-05-16T03:52:16.412Z,82.10
2023-05-16T03:52:48.301Z,83.10
2023-05-16T03:53:20.013Z,82.40
2023-05-16T03:53:51.754Z,82.40
2023-05-16T03:54:23.976Z,83.30
2023-05-16T03:54:55.844Z,82.70
2023-05-16T03:55:27.789Z,82.80
2023-05-16T03:55:59.754Z,82.30
2023-05-16T03:56:31.551Z,82.30
2023-05-16T03:57:03.513Z,83.00
2023-05-16T03:57:38.093Z,82.60
2023-05-16T03:58:09.959Z,82.00
2023-05-16T03:58:41.654Z,82.20
2023-05-16T03:59:13.412Z,82.80
2023-05-16T03:59:45.112Z,82.10
2023-05-16T04:00:17.272Z,83.50
2023-05-16T04:00:48.977Z,82.80
2023-05-16T04:01:20.754Z,82.40
2023-05-16T04:01:52.658Z,82.70
2023-05-16T04:02:24.620Z,82.30
2023-05-16T04:02:56.695Z,82.40
2023-05-16T04:03:30.104Z,82.30
2023-05-16T04:04:01.998Z,82.80
2023-05-16T04:04:34.076Z,82.90
2023-05-16T04:05:10.288Z,82.30
2023-05-16T04:05:42.399Z,82.30
2023-05-16T04:06:46.484Z,81.20
2023-05-16T04:07:18.206Z,82.30
2023-05-16T04:07:50.047Z,81.70
2023-05-16T04:08:21.894Z,83.00
2023-05-16T04:08:53.710Z,82.30
2023-05-16T04:09:25.448Z,82.10
2023-05-16T04:09:58.690Z,82.80
2023-05-16T04:10:30.491Z,82.70
2023-05-16T04:11:02.226Z,82.80
2023-05-16T04:11:34.222Z,82.40
2023-05-16T04:12:06.547Z,83.10
2023-05-16T04:12:38.425Z,82.80
2023-05-16T04:13:10.252Z,83.00
2023-05-16T04:13:42.079Z,83.10
2023-05-16T04:14:14.009Z,82.90
2023-05-16T04:14:45.729Z,82.90
2023-05-16T04:15:17.587Z,84.50
2023-05-16T04:15:49.332Z,83.30
2023-05-16T04:16:21.136Z,84.00
2023-05-16T04:16:53.144Z,83.30
2023-05-16T04:17:25.267Z,84.20
2023-05-16T04:17:57.218Z,83.30
2023-05-16T04:18:29.061Z,82.80
2023-05-16T04:19:00.977Z,83.10
2023-05-16T04:19:32.862Z,82.90
2023-05-16T04:20:05.039Z,83.70
2023-05-16T04:20:37.021Z,82.90
2023-05-16T04:21:10.823Z,82.90
2023-05-16T04:21:42.638Z,82.10
2023-05-16T04:22:14.381Z,84.10
2023-05-16T04:22:47.695Z,84.20
2023-05-16T04:23:51.580Z,81.70
2023-05-16T04:24:26.462Z,82.70
2023-05-16T04:24:58.430Z,82.70
2023-05-16T04:25:31.112Z,83.10
2023-05-16T04:26:04.568Z,84.50
2023-05-16T04:26:37.338Z,82.90
2023-05-16T04:27:09.073Z,80.90
2023-05-16T04:27:40.963Z,83.10
2023-05-16T04:28:13.433Z,83.00
2023-05-16T04:28:45.183Z,83.00
2023-05-16T04:29:17.203Z,83.10
2023-05-16T04:29:49.239Z,83.50
2023-05-16T04:30:21.110Z,83.30
2023-05-16T04:30:53.434Z,83.20
2023-05-16T04:31:28.162Z,83.30
2023-05-16T04:31:59.953Z,83.00
2023-05-16T04:32:35.215Z,83.30
2023-05-16T04:33:07.183Z,83.50
2023-05-16T04:33:38.990Z,85.20
2023-05-16T04:34:10.825Z,84.50
2023-05-16T04:34:44.070Z,83.60
2023-05-16T04:35:16.137Z,83.30
2023-05-16T04:35:48.584Z,83.70
2023-05-16T04:36:21.360Z,83.30
2023-05-16T04:36:53.638Z,84.00
2023-05-16T04:37:25.429Z,83.60
2023-05-16T04:37:57.265Z,84.30
2023-05-16T04:38:29.155Z,83.60
2023-05-16T04:39:01.065Z,83.90
2023-05-16T04:39:33.346Z,85.10
2023-05-16T04:40:07.678Z,83.40
2023-05-16T04:40:41.688Z,83.40
2023-05-16T04:41:14.303Z,84.10
2023-05-16T04:41:46.190Z,83.30
2023-05-16T04:42:17.893Z,84.80
2023-05-16T04:42:49.677Z,83.00
2023-05-16T04:43:21.423Z,83.40
2023-05-16T04:43:54.273Z,84.80
2023-05-16T04:44:26.796Z,83.10
2023-05-16T04:44:58.560Z,83.60
2023-05-16T04:45:30.387Z,83.20
2023-05-16T04:46:02.285Z,83.20
2023-05-16T04:46:34.111Z,83.00
2023-05-16T04:47:06.705Z,82.50
2023-05-16T04:47:38.984Z,82.60
2023-05-16T04:48:12.212Z,84.50
2023-05-16T04:49:16.654Z,82.00
2023-05-16T04:49:48.410Z,83.00
2023-05-16T04:50:20.135Z,83.50
2023-05-16T04:50:52.419Z,82.40
2023-05-16T04:51:24.390Z,84.10
2023-05-16T04:51:56.094Z,83.60
2023-05-16T04:53:00.208Z,82.20
2023-05-16T04:53:31.933Z,83.10
2023-05-16T04:54:03.809Z,83.00
2023-05-16T04:54:35.713Z,82.60
2023-05-16T04:55:08.059Z,83.80
2023-05-16T04:55:39.838Z,83.30
2023-05-16T04:56:11.635Z,82.90
2023-05-16T04:56:43.392Z,82.90
2023-05-16T04:57:15.237Z,83.10
2023-05-16T04:57:47.043Z,83.40
2023-05-16T04:58:18.843Z,83.20
2023-05-16T04:58:50.765Z,82.50
2023-05-16T04:59:22.961Z,83.00
2023-05-16T04:59:55.028Z,82.90
2023-05-16T05:00:27.215Z,83.80
2023-05-16T05:01:33.310Z,82.80
2023-05-16T05:02:05.808Z,83.30
2023-05-16T05:02:38.482Z,83.90
2023-05-16T05:03:10.358Z,84.10
2023-05-16T05:03:42.142Z,83.80
2023-05-16T05:04:14.118Z,84.90
2023-05-16T05:04:46.128Z,83.10
2023-05-16T05:05:18.078Z,83.30
2023-05-16T05:05:49.848Z,83.30
2023-05-16T05:06:21.635Z,83.50
2023-05-16T05:06:53.400Z,83.30
2023-05-16T05:07:28.456Z,84.70
2023-05-16T05:08:01.452Z,84.70
2023-05-16T05:08:33.220Z,83.40
2023-05-16T05:09:05.931Z,84.20
2023-05-16T05:09:37.732Z,83.40
2023-05-16T05:10:10.881Z,82.90
2023-05-16T05:10:42.701Z,83.40
2023-05-16T05:11:14.618Z,84.10
2023-05-16T05:11:46.465Z,84.90
2023-05-16T05:12:18.207Z,83.50
2023-05-16T05:12:50.029Z,84.10
2023-05-16T05:13:21.747Z,83.60
2023-05-16T05:13:53.498Z,83.80
2023-05-16T05:14:25.236Z,84.00
2023-05-16T05:14:57.000Z,83.80
2023-05-16T05:15:28.910Z,84.30
2023-05-16T05:16:02.027Z,83.60
2023-05-16T05:16:34.783Z,83.50
2023-05-16T05:17:06.631Z,83.60
2023-05-16T05:17:38.496Z,85.10
2023-05-16T05:18:10.410Z,84.90
2023-05-16T05:18:42.431Z,83.70
2023-05-16T05:19:14.388Z,83.60
2023-05-16T05:19:46.401Z,83.70
2023-05-16T05:20:18.306Z,83.70
2023-05-16T05:20:50.636Z,84.20
2023-05-16T05:21:25.176Z,83.70
2023-05-16T05:21:57.062Z,84.90
2023-05-16T05:22:28.814Z,83.80
2023-05-16T05:23:00.539Z,83.90
2023-05-16T05:23:32.936Z,83.50
2023-05-16T05:24:05.036Z,84.40
2023-05-16T05:24:36.887Z,84.20
2023-05-16T05:25:09.118Z,84.10
2023-05-16T05:25:40.980Z,84.10
2023-05-16T05:26:12.755Z,84.10
2023-05-16T05:26:44.579Z,84.50
2023-05-16T05:27:16.378Z,83.50
2023-05-16T05:27:48.182Z,84.80
2023-05-16T05:28:20.264Z,84.10
2023-05-16T05:29:03.994Z,84.20
2023-05-16T05:29:37.347Z,84.40
2023-05-16T05:30:09.483Z,84.20
2023-05-16T05:30:43.093Z,84.30
2023-05-16T05:31:15.227Z,84.40
2023-05-16T05:31:47.307Z,85.60
2023-05-16T05:32:19.091Z,84.70
2023-05-16T05:32:51.037Z,85.80
2023-05-16T05:33:29.328Z,84.20
2023-05-16T05:34:01.112Z,85.30
2023-05-16T05:34:33.217Z,84.10
2023-05-16T05:35:05.685Z,84.00
2023-05-16T05:35:37.745Z,84.20
2023-05-16T05:36:09.831Z,84.30
2023-05-16T05:36:41.607Z,84.20
2023-05-16T05:37:14.522Z,84.20
2023-05-16T05:37:46.384Z,83.70
2023-05-16T05:38:18.117Z,83.10
2023-05-16T05:38:49.865Z,84.30
2023-05-16T05:39:21.605Z,84.20
2023-05-16T05:39:53.473Z,83.70
2023-05-16T05:40:25.350Z,84.20
2023-05-16T05:40:57.467Z,85.50
2023-05-16T05:41:29.238Z,84.20
2023-05-16T05:42:03.558Z,84.40
2023-05-16T05:42:35.315Z,86.30
2023-05-16T05:43:07.095Z,84.20
2023-05-16T05:43:38.937Z,84.30
2023-05-16T05:44:10.722Z,84.30
2023-05-16T05:44:42.528Z,85.00
2023-05-16T05:45:16.058Z,84.70
2023-05-16T05:45:47.969Z,84.20
2023-05-16T05:46:19.815Z,84.20
2023-05-16T05:46:51.749Z,84.80
2023-05-16T05:47:23.905Z,85.10
2023-05-16T05:47:55.752Z,85.30
2023-05-16T05:48:29.837Z,84.60
2023-05-16T05:49:01.788Z,85.00
2023-05-16T05:49:34.343Z,86.20
2023-05-16T05:50:07.157Z,84.80
2023-05-16T05:50:39.436Z,84.60
2023-05-16T05:51:11.475Z,85.10
2023-05-16T05:51:43.713Z,84.70
2023-05-16T05:52:15.508Z,84.80
2023-05-16T05:52:47.474Z,84.80
2023-05-16T05:53:19.276Z,86.00
2023-05-16T05:53:51.209Z,85.20
2023-05-16T05:54:23.810Z,85.80
2023-05-16T05:54:55.676Z,85.90
2023-05-16T05:55:27.722Z,84.80
2023-05-16T05:55:59.640Z,85.40
2023-05-16T05:56:31.350Z,84.50
2023-05-16T05:57:03.153Z,86.00
2023-05-16T05:57:34.872Z,85.20
2023-05-16T05:58:07.263Z,85.50
2023-05-16T05:58:39.586Z,85.10
2023-05-16T05:59:11.405Z,86.10
2023-05-16T05:59:43.162Z,85.10
2023-05-16T06:00:15.204Z,84.40
2023-05-16T06:00:47.067Z,85.20
2023-05-16T06:01:21.001Z,85.90
2023-05-16T06:01:53.227Z,85.40
2023-05-16T06:02:25.268Z,85.30
2023-05-16T06:02:57.471Z,85.30
2023-05-16T06:03:29.321Z,85.20
2023-05-16T06:04:02.327Z,85.80
2023-05-16T06:04:34.157Z,86.70
2023-05-16T06:05:06.580Z,85.30
2023-05-16T06:05:38.457Z,85.20
2023-05-16T06:06:10.449Z,85.60
2023-05-16T06:06:42.178Z,86.00
2023-05-16T06:07:16.078Z,85.10
2023-05-16T06:07:47.860Z,85.20
2023-05-16T06:08:19.764Z,85.60
2023-05-16T06:08:51.464Z,85.40
2023-05-16T06:09:23.294Z,85.30
2023-05-16T06:09:55.053Z,85.90
2023-05-16T06:10:26.806Z,85.30
2023-05-16T06:10:58.558Z,85.30
2023-05-16T06:11:30.388Z,85.10
2023-05-16T06:12:02.122Z,85.00
2023-05-16T06:12:33.956Z,85.20
2023-05-16T06:13:05.827Z,84.90
2023-05-16T06:13:37.805Z,84.90
2023-05-16T06:14:09.585Z,85.00
2023-05-16T06:14:41.341Z,84.90
2023-05-16T06:15:13.248Z,84.90
2023-05-16T06:15:49.547Z,84.90
2023-05-16T06:16:25.348Z,85.40
2023-05-16T06:16:57.312Z,85.90
2023-05-16T06:17:29.089Z,84.90
2023-05-16T06:18:00.895Z,85.00
2023-05-16T06:18:32.776Z,84.90
2023-05-16T06:19:04.679Z,85.10
2023-05-16T06:19:36.475Z,84.90
2023-05-16T06:20:08.746Z,84.80
2023-05-16T06:20:40.502Z,84.50
2023-05-16T06:21:12.368Z,86.90
2023-05-16T06:21:44.535Z,86.20
2023-05-16T06:22:16.311Z,85.40
2023-05-16T06:22:48.329Z,85.20
2023-05-16T06:23:21.457Z,86.10
2023-05-16T06:23:53.348Z,85.30
2023-05-16T06:24:25.122Z,86.90
2023-05-16T06:24:56.916Z,86.00
2023-05-16T06:25:29.024Z,85.20
2023-05-16T06:26:01.138Z,85.20
2023-05-16T06:26:33.771Z,85.30
2023-05-16T06:27:05.919Z,85.30
2023-05-16T06:27:37.847Z,85.40
2023-05-16T06:28:09.625Z,85.80
2023-05-16T06:28:41.493Z,85.30
2023-05-16T06:29:13.495Z,86.30
2023-05-16T06:29:45.207Z,85.20
2023-05-16T06:30:17.068Z,85.30
2023-05-16T06:30:51.636Z,85.20
2023-05-16T06:31:23.513Z,85.60
2023-05-16T06:31:55.430Z,86.50
2023-05-16T06:32:27.283Z,86.20
2023-05-16T06:32:59.269Z,87.10
2023-05-16T06:33:31.190Z,85.60
2023-05-16T06:34:03.055Z,85.60
2023-05-16T06:34:35.193Z,87.00
2023-05-16T06:35:08.465Z,85.40
2023-05-16T06:35:40.703Z,85.30
2023-05-16T06:36:12.594Z,85.50
2023-05-16T06:36:44.628Z,85.70
2023-05-16T06:37:16.517Z,85.70
2023-05-16T06:37:48.428Z,85.80
2023-05-16T06:38:20.284Z,86.60
2023-05-16T06:38:52.027Z,86.00
2023-05-16T06:39:23.930Z,85.90
2023-05-16T06:39:55.924Z,85.90
2023-05-16T06:40:27.694Z,86.00
2023-05-16T06:40:59.510Z,86.00
2023-05-16T06:41:31.298Z,86.70
2023-05-16T06:42:03.205Z,86.20
2023-05-16T06:42:37.751Z,86.30
2023-05-16T06:43:11.842Z,86.70
2023-05-16T06:43:43.675Z,86.20
2023-05-16T06:44:15.666Z,86.50
2023-05-16T06:44:47.696Z,87.40
2023-05-16T06:45:19.531Z,86.30
2023-05-16T06:45:51.557Z,86.40
2023-05-16T06:46:23.742Z,86.30
2023-05-16T06:46:55.755Z,86.30
2023-05-16T06:47:27.646Z,86.60
2023-05-16T06:47:59.639Z,86.40
2023-05-16T06:48:31.537Z,86.50
2023-05-16T06:49:03.410Z,87.60
2023-05-16T06:49:35.332Z,86.70
2023-05-16T06:50:07.954Z,87.70
2023-05-16T06:50:39.737Z,86.50
2023-05-16T06:51:11.917Z,86.50
2023-05-16T06:51:46.695Z,86.50
2023-05-16T06:52:18.541Z,86.60
2023-05-16T06:52:50.399Z,86.60
2023-05-16T06:53:22.224Z,86.90
2023-05-16T06:53:53.996Z,87.20
2023-05-16T06:54:25.921Z,86.70
2023-05-16T06:54:57.676Z,86.80
2023-05-16T06:55:29.711Z,86.60
2023-05-16T06:56:01.892Z,86.80
2023-05-16T06:56:33.698Z,87.80
2023-05-16T06:57:05.623Z,87.40
2023-05-16T06:57:37.385Z,86.90
2023-05-16T06:58:09.233Z,86.80
2023-05-16T06:58:41.281Z,86.90
2023-05-16T06:59:13.180Z,88.00
2023-05-16T06:59:45.017Z,86.90
2023-05-16T07:00:17.349Z,86.80
2023-05-16T07:00:49.994Z,87.00
2023-05-16T07:01:21.917Z,87.70
2023-05-16T07:01:53.958Z,87.20
2023-05-16T07:02:26.226Z,87.50
2023-05-16T07:02:58.179Z,88.50
2023-05-16T07:03:30.152Z,88.50
2023-05-16T07:04:02.203Z,87.50
2023-05-16T07:04:36.610Z,87.60
2023-05-16T07:05:08.843Z,88.60
2023-05-16T07:05:40.652Z,87.60
2023-05-16T07:06:12.425Z,87.70
2023-05-16T07:06:44.211Z,88.20
2023-05-16T07:07:16.095Z,87.90
2023-05-16T07:07:49.496Z,88.30
2023-05-16T07:08:21.338Z,89.30
2023-05-16T07:08:53.174Z,88.00
2023-05-16T07:09:24.965Z,87.90
2023-05-16T07:09:56.789Z,87.10
2023-05-16T07:10:28.560Z,87.90
2023-05-16T07:11:00.357Z,87.90
2023-05-16T07:11:32.352Z,87.90
2023-05-16T07:12:04.512Z,88.40
2023-05-16T07:12:40.002Z,88.40
2023-05-16T07:13:11.910Z,88.30
2023-05-16T07:13:43.704Z,89.30
2023-05-16T07:14:15.585Z,88.50
2023-05-16T07:14:47.746Z,88.30
2023-05-16T07:15:19.543Z,88.40
2023-05-16T07:15:51.307Z,88.10
2023-05-16T07:16:23.210Z,88.00
2023-05-16T07:16:55.097Z,88.80
2023-05-16T07:18:40.049Z,88.00
2023-05-16T07:19:12.048Z,87.90
2023-05-16T07:19:43.893Z,88.00
2023-05-16T07:20:15.898Z,87.90
2023-05-16T07:20:48.386Z,88.10
2023-05-16T07:21:20.384Z,88.30
2023-05-16T07:21:52.195Z,88.50
2023-05-16T07:22:23.956Z,89.30
2023-05-16T07:22:57.544Z,88.60
2023-05-16T07:23:29.600Z,88.60
2023-05-16T07:24:01.818Z,89.10
2023-05-16T07:24:33.766Z,88.60
2023-05-16T07:25:06.483Z,88.60
2023-05-16T07:25:38.836Z,88.50
2023-05-16T07:26:10.862Z,88.90
2023-05-16T07:26:42.702Z,88.80
2023-05-16T07:27:14.497Z,88.80
2023-05-16T07:27:46.339Z,89.10
2023-05-16T07:28:18.159Z,88.90
2023-05-16T07:28:50.704Z,88.90
2023-05-16T07:29:22.589Z,89.50
2023-05-16T07:29:54.431Z,89.20
2023-05-16T07:30:26.434Z,89.10
2023-05-16T07:30:58.877Z,89.10
2023-05-16T07:31:31.331Z,89.00
2023-05-16T07:32:03.316Z,90.00
2023-05-16T07:32:35.108Z,89.20
2023-05-16T07:33:06.917Z,89.40
2023-05-16T07:33:38.835Z,89.40
2023-05-16T07:34:12.079Z,89.40
2023-05-16T07:34:43.849Z,89.50
2023-05-16T07:35:15.729Z,89.30
2023-05-16T07:35:47.497Z,89.70
2023-05-16T07:36:19.353Z,89.50
2023-05-16T07:36:51.685Z,89.40
2023-05-16T07:37:24.257Z,89.40
2023-05-16T07:37:56.225Z,89.30
2023-05-16T07:38:28.231Z,89.30
2023-05-16T07:39:00.011Z,89.60
2023-05-16T07:39:31.842Z,89.30
2023-05-16T07:40:03.976Z,89.40
2023-05-16T07:40:35.802Z,89.40
2023-05-16T07:41:07.634Z,89.40
2023-05-16T07:41:39.492Z,89.40
2023-05-16T07:42:11.442Z,89.50
2023-05-16T07:42:43.352Z,89.60
2023-05-16T07:43:17.518Z,89.30
2023-05-16T07:43:49.396Z,90.00
2023-05-16T07:44:21.184Z,90.00
2023-05-16T07:44:52.992Z,89.30
2023-05-16T07:45:25.019Z,89.20
2023-05-16T07:45:57.014Z,89.10
2023-05-16T07:46:28.933Z,89.20
2023-05-16T07:47:01.117Z,89.50
2023-05-16T07:47:33.144Z,89.50
2023-05-16T07:48:05.074Z,89.20
2023-05-16T07:48:37.378Z,89.20
2023-05-16T07:49:09.159Z,89.00
2023-05-16T07:49:41.597Z,89.10
2023-05-16T07:50:13.491Z,89.20
2023-05-16T07:50:45.290Z,89.20
2023-05-16T07:51:17.485Z,89.30
2023-05-16T07:51:49.416Z,89.20
2023-05-16T07:52:21.408Z,90.10
2023-05-16T07:52:53.173Z,89.30
2023-05-16T07:53:25.087Z,89.30
2023-05-16T07:53:56.885Z,89.30
2023-05-16T07:54:28.703Z,89.20
2023-05-16T07:55:00.549Z,89.30
2023-05-16T07:55:32.369Z,90.00
2023-05-16T07:56:05.538Z,89.20
2023-05-16T07:56:37.446Z,89.40
2023-05-16T07:57:09.510Z,89.40
2023-05-16T07:57:41.732Z,89.80
2023-05-16T07:58:13.737Z,89.50
2023-05-16T07:58:46.017Z,90.10
2023-05-16T07:59:18.025Z,89.80
2023-05-16T07:59:52.230Z,89.30
2023-05-16T08:00:24.372Z,89.60
2023-05-16T08:00:56.420Z,89.30
2023-05-16T08:01:28.253Z,89.50
2023-05-16T08:02:00.174Z,90.10
2023-05-16T08:02:32.359Z,89.80
2023-05-16T08:03:05.139Z,89.70
2023-05-16T08:03:37.266Z,90.10
2023-05-16T08:04:09.205Z,90.10
2023-05-16T08:04:41.308Z,89.60
2023-05-16T08:05:13.193Z,90.00
2023-05-16T08:05:45.394Z,89.70
2023-05-16T08:06:17.395Z,89.80
2023-05-16T08:06:49.942Z,90.00
2023-05-16T08:07:21.749Z,90.00
2023-05-16T08:07:53.550Z,89.80
2023-05-16T08:08:25.443Z,90.00
2023-05-16T08:08:57.315Z,89.90
2023-05-16T08:09:29.064Z,90.00
2023-05-16T08:10:00.981Z,89.90
2023-05-16T08:10:33.160Z,90.00
2023-05-16T08:11:05.649Z,90.00
2023-05-16T08:11:37.717Z,90.00
2023-05-16T08:12:09.934Z,90.30
2023-05-16T08:12:41.901Z,90.00
2023-05-16T08:13:13.734Z,90.10
2023-05-16T08:13:45.562Z,89.90
2023-05-16T08:14:17.359Z,90.10
2023-05-16T08:14:49.243Z,90.20
2023-05-16T08:15:21.605Z,90.20
2023-05-16T08:15:53.531Z,90.20
2023-05-16T08:16:25.638Z,90.30
2023-05-16T08:16:59.443Z,90.40
2023-05-16T08:17:31.249Z,90.40
2023-05-16T08:18:03.255Z,90.30
2023-05-16T08:18:35.107Z,90.20
2023-05-16T08:19:07.778Z,90.40
2023-05-16T08:19:39.728Z,90.40
2023-05-16T08:20:12.411Z,90.40
2023-05-16T08:20:44.314Z,90.30
2023-05-16T08:21:16.718Z,90.30
2023-05-16T08:21:48.537Z,90.40
2023-05-16T08:22:20.552Z,90.50
2023-05-16T08:22:52.639Z,90.40
2023-05-16T08:23:24.474Z,90.50
2023-05-16T08:23:56.325Z,90.40
2023-05-16T08:24:28.133Z,90.40
2023-05-16T08:25:00.661Z,90.50
2023-05-16T08:25:32.458Z,90.50
2023-05-16T08:26:04.510Z,90.80
2023-05-16T08:26:37.455Z,90.50
2023-05-16T08:27:09.294Z,90.50
2023-05-16T08:27:41.105Z,90.70
2023-05-16T08:28:13.067Z,90.60
2023-05-16T08:28:44.867Z,90.70
2023-05-16T08:29:17.071Z,90.70
2023-05-16T08:29:48.962Z,90.80
2023-05-16T08:30:20.788Z,90.90
2023-05-16T08:30:52.714Z,90.90
2023-05-16T08:31:24.642Z,90.80
2023-05-16T08:31:56.598Z,90.90
2023-05-16T08:32:28.521Z,91.10
2023-05-16T08:33:04.789Z,90.90
2023-05-16T08:33:36.876Z,90.90
2023-05-16T08:34:10.351Z,91.00
2023-05-16T08:34:42.391Z,91.00
2023-05-16T08:35:14.375Z,91.30
2023-05-16T08:35:46.424Z,91.40
2023-05-16T08:36:19.955Z,91.20
2023-05-16T08:36:51.722Z,91.30
2023-05-16T08:37:23.549Z,91.40
2023-05-16T08:37:55.305Z,91.50
2023-05-16T08:38:27.140Z,91.50
2023-05-16T08:38:58.943Z,91.40
2023-05-16T08:39:30.745Z,91.40
2023-05-16T08:40:05.299Z,91.60
2023-05-16T08:40:37.430Z,91.80
2023-05-16T08:41:09.281Z,91.60
2023-05-16T08:41:41.614Z,91.70
2023-05-16T08:42:13.483Z,91.70
2023-05-16T08:42:45.873Z,91.70
2023-05-16T08:43:18.014Z,91.80
2023-05-16T08:43:49.925Z,91.70
2023-05-16T08:44:22.214Z,91.80
2023-05-16T08:44:54.484Z,92.00
2023-05-16T08:45:26.785Z,92.00
2023-05-16T08:45:59.699Z,92.10
2023-05-16T08:46:35.669Z,91.90
2023-05-16T08:47:22.140Z,91.90
2023-05-16T08:48:00.715Z,91.90
2023-05-16T08:48:33.864Z,91.90
2023-05-16T08:49:07.850Z,92.00
2023-05-16T08:49:41.963Z,92.30
2023-05-16T08:50:16.099Z,92.20
2023-05-16T08:50:48.000Z,92.30
2023-05-16T08:51:21.157Z,92.20
2023-05-16T08:51:58.048Z,92.40
2023-05-16T08:52:33.323Z,93.00
2023-05-16T08:53:08.058Z,92.20
2023-05-16T08:53:54.523Z,92.30
2023-05-16T08:54:28.162Z,92.20
2023-05-16T08:55:11.423Z,92.10
2023-05-16T08:55:45.742Z,92.00
2023-05-16T08:56:18.622Z,92.00
2023-05-16T08:56:51.154Z,91.80
2023-05-16T08:57:23.371Z,92.40
2023-05-16T08:57:55.307Z,92.10
2023-05-16T08:58:29.015Z,92.10
2023-05-16T08:59:02.258Z,91.90
2023-05-16T08:59:35.303Z,91.80
2023-05-16T09:00:11.812Z,92.00
2023-05-16T09:00:44.567Z,92.30
2023-05-16T09:01:17.247Z,92.50
2023-05-16T09:01:49.227Z,92.40
2023-05-16T09:02:22.820Z,92.00
2023-05-16T09:02:55.192Z,92.00
2023-05-16T09:03:28.893Z,92.10
2023-05-16T09:04:01.702Z,92.10
2023-05-16T09:04:33.920Z,92.20
2023-05-16T09:05:09.831Z,92.30
2023-05-16T09:05:41.915Z,91.90
2023-05-16T09:06:13.828Z,91.80
2023-05-16T09:06:45.772Z,91.60
2023-05-16T09:07:17.701Z,91.40
2023-05-16T09:07:49.924Z,91.10
2023-05-16T09:08:21.747Z,91.30
2023-05-16T09:08:54.607Z,91.00
2023-05-16T09:09:26.388Z,90.80
2023-05-16T09:09:58.186Z,90.70
2023-05-16T09:10:30.040Z,90.90
2023-05-16T09:11:03.701Z,90.60
2023-05-16T09:11:37.162Z,90.50